Time;durP1;ratioP1;P1;durP2;ratioP2;P2;SDS_P1;SDS_P2;PMS_P1;PMS_P2;Temp;Humidity;BMP_temperature;BMP_pressure;BME280_temperature;BME280_humidity;BME280_pressure;Samples;Min_cycle;Max_cycle;Signal;HPM_P1;HPM_P2
2022/01/02 00:01:35;;;;;;;4.57;2.90;;;11.60;99.90;;;;;;5054226;28;20456;-81
2022/01/02 00:04:05;;;;;;;4.27;3.70;;;11.60;99.90;;;;;;5057831;28;20500;-82
2022/01/02 00:06:39;;;;;;;5.50;3.20;;;11.50;99.90;;;;;;5046281;28;20460;-83
2022/01/02 00:09:08;;;;;;;4.63;3.07;;;11.50;99.90;;;;;;5046025;28;20927;-83
2022/01/02 00:11:38;;;;;;;4.70;4.30;;;11.40;99.90;;;;;;5046434;28;20489;-81
2022/01/02 00:14:08;;;;;;;5.77;3.40;;;11.40;99.90;;;;;;5046309;28;20465;-83
2022/01/02 00:16:38;;;;;;;4.60;3.50;;;11.30;99.90;;;;;;5045755;28;20459;-84
2022/01/02 00:19:19;;;;;;;4.67;3.77;;;11.30;99.90;;;;;;5053783;28;20505;-83
2022/01/02 00:21:48;;;;;;;4.03;3.43;;;11.30;99.90;;;;;;5043494;28;20471;-83
2022/01/02 00:24:20;;;;;;;5.00;3.30;;;11.30;99.90;;;;;;5045131;28;20514;-82
2022/01/02 00:26:51;;;;;;;6.47;3.80;;;11.30;99.90;;;;;;5049429;28;20451;-82
2022/01/02 00:29:21;;;;;;;3.93;3.57;;;11.30;99.90;;;;;;5045146;28;20447;-84
2022/01/02 00:31:53;;;;;;;4.70;3.33;;;11.30;99.90;;;;;;5050184;28;20498;-83
2022/01/02 00:34:23;;;;;;;5.47;3.90;;;11.30;99.90;;;;;;5057633;28;20464;-82
2022/01/02 00:36:52;;;;;;;5.73;3.67;;;11.30;99.90;;;;;;5050883;28;20457;-83
2022/01/02 00:39:20;;;;;;;4.30;3.33;;;11.30;99.90;;;;;;5064889;28;20462;-82
2022/01/02 00:41:55;;;;;;;4.73;3.40;;;11.30;99.90;;;;;;5047080;28;20489;-83
2022/01/02 00:44:32;;;;;;;6.13;3.60;;;11.30;99.90;;;;;;5044814;28;20512;-82
2022/01/02 00:47:08;;;;;;;4.57;3.10;;;11.20;99.90;;;;;;5050785;28;20462;-82
2022/01/02 00:49:41;;;;;;;5.67;3.53;;;11.20;99.90;;;;;;5064788;28;20438;-83
2022/01/02 00:52:17;;;;;;;5.53;4.33;;;11.10;99.90;;;;;;5055837;28;20485;-83
2022/01/02 00:54:48;;;;;;;4.57;3.70;;;11.10;99.90;;;;;;5058368;28;21094;-83
2022/01/02 00:57:18;;;;;;;6.50;3.10;;;11.10;99.90;;;;;;5044498;28;20469;-83
2022/01/02 00:59:59;;;;;;;6.30;3.83;;;11.10;99.90;;;;;;5048178;28;21259;-82
2022/01/02 01:02:33;;;;;;;10.97;4.47;;;11.10;99.90;;;;;;5065215;28;20846;-81
2022/01/02 01:05:06;;;;;;;4.97;3.90;;;11.10;99.90;;;;;;5045078;28;20455;-84
2022/01/02 01:07:35;;;;;;;8.00;4.30;;;11.10;99.90;;;;;;5044801;28;20463;-83
2022/01/02 01:10:07;;;;;;;6.30;5.07;;;11.10;99.90;;;;;;5059694;28;20797;-83
2022/01/02 01:12:35;;;;;;;5.40;3.73;;;11.10;99.90;;;;;;5064364;28;20490;-82
2022/01/02 01:15:05;;;;;;;5.17;4.00;;;11.10;99.90;;;;;;5051611;28;20464;-83
2022/01/02 01:17:36;;;;;;;4.10;3.23;;;11.00;99.90;;;;;;5052622;28;20454;-82
2022/01/02 01:20:07;;;;;;;5.87;4.23;;;11.00;99.90;;;;;;5058026;28;20495;-83
2022/01/02 01:22:36;;;;;;;3.37;3.07;;;11.00;99.90;;;;;;5061070;28;20854;-82
2022/01/02 01:25:07;;;;;;;5.63;3.87;;;11.00;99.90;;;;;;5061804;28;20893;-82
2022/01/02 01:27:35;;;;;;;6.60;5.10;;;11.00;99.90;;;;;;5050422;28;20487;-82
2022/01/02 01:30:04;;;;;;;4.30;3.70;;;11.00;99.90;;;;;;5045134;28;20458;-83
2022/01/02 01:32:33;;;;;;;4.33;3.70;;;11.00;99.90;;;;;;5062214;28;20501;-82
2022/01/02 01:35:02;;;;;;;7.10;2.80;;;11.00;99.90;;;;;;5050799;28;20543;-83
2022/01/02 01:37:33;;;;;;;3.30;2.60;;;11.00;99.90;;;;;;5065479;28;20505;-82
2022/01/02 01:40:01;;;;;;;2.87;2.67;;;11.10;99.90;;;;;;5060263;28;20485;-83
2022/01/02 01:42:35;;;;;;;4.60;3.07;;;11.10;99.90;;;;;;5048855;28;20502;-83
2022/01/02 01:47:54;;;;;;;3.17;2.50;;;11.00;99.90;;;;;;5050270;28;20531;-82
2022/01/02 01:50:25;;;;;;;4.10;2.93;;;11.00;99.90;;;;;;5043704;28;20815;-82
2022/01/02 01:52:55;;;;;;;4.07;2.70;;;10.90;99.90;;;;;;5043656;28;20490;-83
2022/01/02 01:55:23;;;;;;;4.10;3.67;;;10.90;99.90;;;;;;5043478;28;20470;-83
2022/01/02 01:57:52;;;;;;;2.93;2.43;;;10.90;99.90;;;;;;5043209;28;20990;-83
2022/01/02 02:00:23;;;;;;;3.40;2.40;;;10.80;99.90;;;;;;5053010;28;20469;-82
2022/01/02 02:02:51;;;;;;;5.90;3.43;;;10.90;99.90;;;;;;5063399;28;20468;-82
2022/01/02 02:05:19;;;;;;;3.97;3.57;;;10.80;99.90;;;;;;5043685;28;20477;-83
2022/01/02 02:07:47;;;;;;;4.27;2.50;;;10.80;99.90;;;;;;5041277;28;20464;-83
2022/01/02 02:10:24;;;;;;;4.40;2.60;;;10.80;99.90;;;;;;5042935;28;20460;-82
2022/01/02 02:12:55;;;;;;;3.70;2.87;;;10.70;99.90;;;;;;5042813;28;20483;-81
2022/01/02 02:15:24;;;;;;;2.70;2.30;;;10.70;99.90;;;;;;5062447;28;20519;-81
2022/01/02 02:17:53;;;;;;;3.83;2.70;;;10.70;99.90;;;;;;5048444;28;20505;-83
2022/01/02 02:20:25;;;;;;;3.60;2.30;;;10.70;99.90;;;;;;5046320;28;20457;-84
2022/01/02 02:22:56;;;;;;;4.00;2.70;;;10.80;99.90;;;;;;5049477;28;20474;-83
2022/01/02 02:25:26;;;;;;;3.10;2.83;;;10.80;99.90;;;;;;5050749;28;20473;-84
2022/01/02 02:27:56;;;;;;;6.40;3.17;;;10.80;99.90;;;;;;5056755;28;20499;-83
2022/01/02 02:30:25;;;;;;;2.97;2.67;;;10.70;99.90;;;;;;5067777;28;20459;-83
2022/01/02 02:32:55;;;;;;;3.03;2.70;;;10.70;99.90;;;;;;5059950;28;20473;-84
2022/01/02 02:35:25;;;;;;;9.73;3.93;;;10.60;99.90;;;;;;5064282;28;20899;-83
2022/01/02 02:37:54;;;;;;;4.90;3.10;;;10.60;99.90;;;;;;5049951;28;20853;-82
2022/01/02 02:40:24;;;;;;;4.80;2.57;;;10.60;99.90;;;;;;5050139;28;20504;-83
2022/01/02 02:42:56;;;;;;;4.37;2.23;;;10.60;99.90;;;;;;5049775;28;20513;-82
2022/01/02 02:51:07;;;;;;;4.93;2.50;;;10.50;99.90;;;;;;5050031;28;21157;-82
2022/01/02 02:53:37;;;;;;;3.00;2.10;;;10.50;99.90;;;;;;5064149;28;20568;-84
2022/01/02 02:56:14;;;;;;;4.53;3.03;;;10.50;99.90;;;;;;5060238;28;20498;-82
2022/01/02 02:58:43;;;;;;;3.53;2.20;;;10.60;99.90;;;;;;5063859;28;20477;-83
2022/01/02 03:01:14;;;;;;;3.00;2.70;;;10.60;99.90;;;;;;5063033;28;20460;-83
2022/01/02 03:03:43;;;;;;;3.37;2.77;;;10.50;99.90;;;;;;5069997;28;20473;-82
2022/01/02 03:06:14;;;;;;;3.60;2.00;;;10.60;99.90;;;;;;5056833;28;20458;-83
2022/01/02 03:08:44;;;;;;;3.10;2.30;;;10.60;99.90;;;;;;5062321;28;20454;-82
2022/01/02 03:11:15;;;;;;;6.10;2.60;;;10.50;99.90;;;;;;5069977;28;20492;-84
2022/01/02 03:13:45;;;;;;;2.90;2.10;;;10.50;99.90;;;;;;5069109;28;20489;-82
2022/01/02 03:16:13;;;;;;;2.20;1.70;;;10.50;99.90;;;;;;5054884;28;21015;-83
2022/01/02 03:18:42;;;;;;;2.40;1.70;;;10.60;99.90;;;;;;5049783;28;20508;-82
2022/01/02 03:21:13;;;;;;;2.33;1.97;;;10.60;99.90;;;;;;5048416;28;20458;-83
2022/01/02 03:23:41;;;;;;;2.53;1.80;;;10.60;99.90;;;;;;5048771;28;20481;-82
2022/01/02 03:26:10;;;;;;;2.50;1.60;;;10.60;99.90;;;;;;5052119;28;20473;-83
2022/01/02 03:28:38;;;;;;;2.30;1.80;;;10.60;99.90;;;;;;5062370;28;20452;-84
2022/01/02 03:31:06;;;;;;;3.27;1.63;;;10.60;99.90;;;;;;5064025;28;20470;-83
2022/01/02 03:33:35;;;;;;;2.47;2.07;;;10.60;99.90;;;;;;5049584;28;20521;-82
2022/01/02 03:36:04;;;;;;;3.80;2.43;;;10.60;99.90;;;;;;5049685;28;20458;-83
2022/01/02 03:38:38;;;;;;;2.87;1.93;;;10.50;99.90;;;;;;5049453;28;20955;-82
2022/01/02 03:41:07;;;;;;;2.47;2.00;;;10.50;99.90;;;;;;5049807;28;20464;-83
2022/01/02 03:43:35;;;;;;;3.07;2.37;;;10.50;99.90;;;;;;5063026;28;20486;-82
2022/01/02 03:46:04;;;;;;;2.87;2.30;;;10.40;99.90;;;;;;5069990;28;20456;-82
2022/01/02 03:48:34;;;;;;;3.33;2.30;;;10.40;99.90;;;;;;5055828;28;20494;-82
2022/01/02 03:51:05;;;;;;;2.60;2.40;;;10.30;99.90;;;;;;5049558;28;20461;-84
2022/01/02 03:53:33;;;;;;;2.37;2.17;;;10.40;99.90;;;;;;5050357;28;20472;-82
2022/01/02 03:56:03;;;;;;;2.30;2.10;;;10.40;99.90;;;;;;5052602;28;20480;-83
2022/01/02 03:58:31;;;;;;;3.07;2.33;;;10.40;99.90;;;;;;5054232;28;20982;-83
2022/01/02 04:00:59;;;;;;;3.87;2.60;;;10.40;99.90;;;;;;5073294;28;20987;-83
2022/01/02 04:03:28;;;;;;;4.13;2.27;;;10.40;99.90;;;;;;5072563;28;20527;-83
2022/01/02 04:05:56;;;;;;;4.17;2.80;;;10.30;99.90;;;;;;5060716;28;20451;-83
2022/01/02 04:08:24;;;;;;;3.00;2.23;;;10.40;99.90;;;;;;5058736;28;20462;-82
2022/01/02 04:10:52;;;;;;;2.27;2.07;;;10.30;99.90;;;;;;5052702;28;20452;-82
2022/01/02 04:13:22;;;;;;;3.97;1.87;;;10.30;99.90;;;;;;5052696;28;20488;-83
2022/01/02 04:15:50;;;;;;;4.80;2.77;;;10.20;99.90;;;;;;5054636;28;20464;-83
2022/01/02 04:18:18;;;;;;;3.33;2.73;;;10.20;99.90;;;;;;5058243;28;20446;-82
2022/01/02 04:20:49;;;;;;;2.40;2.20;;;10.10;99.90;;;;;;5052560;28;20450;-83
2022/01/02 04:23:17;;;;;;;3.43;3.13;;;10.10;99.90;;;;;;5052345;28;20470;-82
2022/01/02 04:25:45;;;;;;;2.37;2.17;;;10.10;99.90;;;;;;5052476;28;20448;-83
2022/01/02 04:28:13;;;;;;;4.83;2.73;;;10.20;99.90;;;;;;5072826;28;20482;-82
2022/01/02 04:30:43;;;;;;;2.73;2.23;;;10.20;99.90;;;;;;5058998;28;20457;-82
2022/01/02 04:33:11;;;;;;;2.57;2.33;;;10.20;99.90;;;;;;5064727;28;20487;-82
2022/01/02 04:35:39;;;;;;;3.67;2.47;;;10.20;99.90;;;;;;5072498;28;20484;-83
2022/01/02 04:38:07;;;;;;;2.80;2.60;;;10.10;99.90;;;;;;5070503;28;20452;-82
2022/01/02 04:40:36;;;;;;;2.53;2.33;;;10.10;99.90;;;;;;5064085;28;20455;-83
2022/01/02 04:43:04;;;;;;;2.73;2.53;;;10.10;99.90;;;;;;5051942;28;20507;-83
2022/01/02 04:45:32;;;;;;;2.87;2.17;;;10.10;99.90;;;;;;5060492;28;20460;-82
2022/01/02 04:48:02;;;;;;;5.30;2.80;;;10.10;99.90;;;;;;5070652;28;20443;-83
2022/01/02 04:50:30;;;;;;;2.60;2.40;;;10.20;99.90;;;;;;5060405;28;20454;-83
2022/01/02 04:52:59;;;;;;;5.30;3.27;;;10.20;99.90;;;;;;5070411;28;20473;-82
2022/01/02 04:55:27;;;;;;;3.20;2.90;;;10.10;99.90;;;;;;5052175;28;20479;-83
2022/01/02 04:57:55;;;;;;;10.00;3.27;;;10.10;99.90;;;;;;5055994;28;20465;-82
2022/01/02 05:00:23;;;;;;;3.23;2.40;;;10.10;99.90;;;;;;5072173;28;20460;-82
2022/01/02 05:02:52;;;;;;;3.73;2.67;;;10.20;99.90;;;;;;5071748;28;20488;-83
2022/01/02 05:05:22;;;;;;;3.10;2.80;;;10.20;99.90;;;;;;5071569;28;20458;-83
2022/01/02 05:07:50;;;;;;;3.40;2.17;;;10.10;99.90;;;;;;5058153;28;20458;-83
2022/01/02 05:10:18;;;;;;;3.13;2.43;;;10.20;99.90;;;;;;5072159;28;20467;-83
2022/01/02 05:12:47;;;;;;;4.23;2.97;;;10.10;99.90;;;;;;5057772;28;20480;-83
2022/01/02 05:15:15;;;;;;;2.63;1.90;;;10.10;99.90;;;;;;5054807;28;20809;-82
2022/01/02 05:17:44;;;;;;;3.23;2.20;;;10.10;99.90;;;;;;5051056;28;20462;-82
2022/01/02 05:20:13;;;;;;;5.00;1.97;;;10.10;99.90;;;;;;5079634;28;20481;-83
2022/01/02 05:22:43;;;;;;;4.93;2.43;;;10.20;99.90;;;;;;5061753;28;20480;-82
2022/01/02 05:25:11;;;;;;;2.93;2.13;;;10.10;99.90;;;;;;5055438;28;20471;-83
2022/01/02 05:27:39;;;;;;;2.37;2.17;;;10.20;99.90;;;;;;5074599;28;20476;-81
2022/01/02 05:30:09;;;;;;;3.67;2.07;;;10.20;99.90;;;;;;5054362;28;20528;-83
2022/01/02 05:32:37;;;;;;;1.73;1.63;;;10.20;99.90;;;;;;5051287;28;20476;-83
2022/01/02 05:35:06;;;;;;;2.20;2.00;;;10.10;99.90;;;;;;5054727;28;20466;-83
2022/01/02 05:37:34;;;;;;;2.43;2.07;;;10.10;99.90;;;;;;5061088;28;20475;-82
2022/01/02 05:40:04;;;;;;;6.53;2.00;;;10.10;99.90;;;;;;5064657;28;20521;-82
2022/01/02 05:42:33;;;;;;;2.60;1.77;;;10.10;99.90;;;;;;5070591;28;20501;-82
2022/01/02 05:45:01;;;;;;;2.70;2.03;;;10.10;99.90;;;;;;5057581;28;20559;-82
2022/01/02 05:47:29;;;;;;;6.20;2.10;;;10.20;99.90;;;;;;5060878;28;20493;-83
2022/01/02 05:49:57;;;;;;;1.83;1.30;;;10.20;99.90;;;;;;5051287;28;20457;-84
2022/01/02 05:52:26;;;;;;;1.63;1.17;;;10.50;99.90;;;;;;5051253;28;20496;-83
2022/01/02 05:54:54;;;;;;;1.80;1.70;;;10.30;99.90;;;;;;5051174;28;20481;-82
2022/01/02 05:57:23;;;;;;;2.73;2.10;;;10.40;99.90;;;;;;5050430;28;20481;-83
2022/01/02 05:59:52;;;;;;;1.77;1.67;;;10.50;99.90;;;;;;5051133;28;20470;-82
2022/01/02 06:02:20;;;;;;;1.37;1.27;;;10.50;99.90;;;;;;5063425;28;20492;-83
2022/01/02 06:04:48;;;;;;;1.73;1.23;;;10.60;99.90;;;;;;5051726;28;20949;-83
2022/01/02 06:07:16;;;;;;;1.20;1.10;;;10.70;99.90;;;;;;5053722;28;20791;-83
2022/01/02 06:09:44;;;;;;;1.20;0.90;;;10.70;99.90;;;;;;5069984;28;20460;-83
2022/01/02 06:12:12;;;;;;;1.80;1.13;;;10.80;99.90;;;;;;5066033;28;20528;-83
2022/01/02 06:14:42;;;;;;;1.60;1.30;;;10.90;99.90;;;;;;5060075;28;20493;-82
2022/01/02 06:17:10;;;;;;;1.50;1.40;;;10.90;99.90;;;;;;5065590;28;20450;-84
2022/01/02 06:19:38;;;;;;;1.70;1.20;;;11.00;99.90;;;;;;5049910;28;20460;-83
2022/01/02 06:22:06;;;;;;;1.93;1.40;;;10.90;99.90;;;;;;5050551;28;20482;-84
2022/01/02 06:24:34;;;;;;;2.60;2.40;;;10.90;99.90;;;;;;5048819;28;20458;-83
2022/01/02 06:27:03;;;;;;;2.27;1.70;;;10.80;99.90;;;;;;5055911;28;20469;-83
2022/01/02 06:29:31;;;;;;;1.70;1.30;;;10.70;99.90;;;;;;5048831;28;20518;-82
2022/01/02 06:32:02;;;;;;;3.23;1.60;;;10.70;99.90;;;;;;5055566;28;20507;-83
2022/01/02 06:34:31;;;;;;;2.83;1.50;;;10.70;99.90;;;;;;5070240;28;20516;-83
2022/01/02 06:36:59;;;;;;;4.50;1.63;;;10.70;99.90;;;;;;5057039;28;20515;-83
2022/01/02 06:39:27;;;;;;;1.30;1.20;;;10.60;99.90;;;;;;5070050;28;20849;-83
2022/01/02 06:42:01;;;;;;;3.10;1.53;;;10.60;99.90;;;;;;5064543;28;20530;-83
2022/01/02 06:44:29;;;;;;;3.23;1.77;;;10.60;99.90;;;;;;5063025;28;20470;-83
2022/01/02 06:46:57;;;;;;;2.67;1.37;;;10.60;99.90;;;;;;5064320;28;20992;-83
2022/01/02 06:49:27;;;;;;;2.70;1.97;;;10.60;99.90;;;;;;5050228;28;20445;-83
2022/01/02 06:51:55;;;;;;;1.70;1.60;;;10.60;99.90;;;;;;5050368;28;20487;-83
2022/01/02 06:54:23;;;;;;;3.23;1.53;;;10.60;99.90;;;;;;5050192;28;20500;-83
2022/01/02 06:56:51;;;;;;;2.93;1.73;;;10.60;99.90;;;;;;5050241;28;21137;-82
2022/01/02 06:59:19;;;;;;;2.13;1.20;;;10.60;99.90;;;;;;5055126;28;20484;-83
2022/01/02 07:01:48;;;;;;;1.57;1.47;;;10.70;99.90;;;;;;5058373;28;20498;-82
2022/01/02 07:04:16;;;;;;;1.20;1.10;;;10.70;99.90;;;;;;5050054;28;20546;-83
2022/01/02 07:06:46;;;;;;;2.13;1.50;;;10.80;99.90;;;;;;5051312;28;20455;-83
2022/01/02 07:09:14;;;;;;;1.43;1.30;;;10.90;99.90;;;;;;5053953;28;20511;-83
2022/01/02 07:11:42;;;;;;;2.00;1.47;;;11.00;99.90;;;;;;5048354;28;20462;-83
2022/01/02 07:14:11;;;;;;;1.40;1.00;;;11.00;99.90;;;;;;5067970;28;20478;-83
2022/01/02 07:16:39;;;;;;;2.10;1.17;;;11.00;99.90;;;;;;5069979;28;20458;-83
2022/01/02 07:19:07;;;;;;;2.50;1.07;;;11.10;99.90;;;;;;5064234;28;20973;-83
2022/01/02 07:21:35;;;;;;;2.50;1.40;;;11.10;99.90;;;;;;5049300;28;20447;-83
2022/01/02 07:24:05;;;;;;;2.33;1.60;;;11.20;99.90;;;;;;5049199;28;20459;-82
2022/01/02 07:26:33;;;;;;;1.83;1.57;;;11.10;99.90;;;;;;5055882;28;20468;-82
2022/01/02 07:29:01;;;;;;;1.70;1.30;;;11.10;99.90;;;;;;5055812;28;20803;-83
2022/01/02 07:31:30;;;;;;;0.80;0.80;;;11.10;99.90;;;;;;5073723;28;20455;-83
2022/01/02 07:33:58;;;;;;;1.20;1.10;;;11.00;99.90;;;;;;5073452;28;20895;-83
2022/01/02 07:36:26;;;;;;;1.40;1.30;;;11.10;99.90;;;;;;5072230;28;20448;-82
2022/01/02 07:38:54;;;;;;;2.17;1.33;;;11.20;99.90;;;;;;5054659;28;20465;-83
2022/01/02 07:41:25;;;;;;;1.30;1.20;;;11.20;99.90;;;;;;5053355;28;20446;-83
2022/01/02 07:43:54;;;;;;;1.30;1.07;;;11.20;99.90;;;;;;5053413;28;20459;-83
2022/01/02 07:46:22;;;;;;;3.47;1.70;;;11.20;99.90;;;;;;5052554;28;20450;-83
2022/01/02 07:48:54;;;;;;;2.43;1.60;;;11.30;99.90;;;;;;5071166;28;20507;-83
2022/01/02 07:51:22;;;;;;;2.37;1.87;;;11.30;99.90;;;;;;5060722;28;20855;-82
2022/01/02 07:53:50;;;;;;;2.23;1.73;;;11.40;99.90;;;;;;5053164;28;20558;-83
2022/01/02 07:56:18;;;;;;;3.23;1.97;;;11.40;99.90;;;;;;5054736;28;20474;-83
2022/01/02 07:58:48;;;;;;;1.40;1.30;;;11.50;99.90;;;;;;5059014;28;20474;-81
2022/01/02 08:01:16;;;;;;;1.33;1.20;;;11.50;99.90;;;;;;5053031;28;20978;-83
2022/01/02 08:03:45;;;;;;;2.10;1.30;;;11.50;99.90;;;;;;5053153;28;20499;-83
2022/01/02 08:06:13;;;;;;;1.63;1.30;;;11.50;99.90;;;;;;5051808;28;20542;-83
2022/01/02 08:08:42;;;;;;;2.90;1.10;;;11.40;99.90;;;;;;5052701;28;20496;-83
2022/01/02 08:11:10;;;;;;;2.53;1.20;;;11.50;99.90;;;;;;5052752;28;20463;-83
2022/01/02 08:13:38;;;;;;;1.63;1.40;;;11.40;99.90;;;;;;5056154;28;20803;-81
2022/01/02 08:16:08;;;;;;;2.37;1.80;;;11.40;99.90;;;;;;5072387;28;20475;-82
2022/01/02 08:18:36;;;;;;;2.23;2.03;;;11.40;99.90;;;;;;5059818;28;20455;-84
2022/01/02 08:21:05;;;;;;;2.83;1.60;;;11.40;99.90;;;;;;5053016;28;20454;-83
2022/01/02 08:23:33;;;;;;;2.40;2.20;;;11.40;99.90;;;;;;5066332;28;20469;-83
2022/01/02 08:26:21;;;;;;;2.30;2.10;;;11.50;99.90;;;;;;5073981;28;20964;-84
2022/01/02 08:28:49;;;;;;;2.30;2.10;;;11.40;99.90;;;;;;5058141;28;20815;-84
2022/01/02 08:31:19;;;;;;;1.80;1.70;;;11.50;99.90;;;;;;5052502;28;20795;-82
2022/01/02 08:33:47;;;;;;;2.87;1.53;;;11.40;99.90;;;;;;5052440;28;21011;-83
2022/01/02 08:36:15;;;;;;;1.80;1.70;;;11.40;99.90;;;;;;5052198;28;20997;-83
2022/01/02 08:38:44;;;;;;;2.93;1.53;;;11.40;99.90;;;;;;5051941;28;20458;-83
2022/01/02 08:41:12;;;;;;;1.90;1.30;;;11.50;99.90;;;;;;5051363;28;20455;-83
2022/01/02 08:43:41;;;;;;;3.60;1.80;;;11.50;99.90;;;;;;5066807;28;20559;-83
2022/01/02 08:46:10;;;;;;;2.17;1.73;;;11.50;99.90;;;;;;5052594;28;20444;-83
2022/01/02 08:48:40;;;;;;;2.60;1.60;;;11.50;99.90;;;;;;5064006;28;20455;-83
2022/01/02 08:51:11;;;;;;;4.10;1.70;;;11.60;99.90;;;;;;5072360;28;21072;-83
2022/01/02 08:53:39;;;;;;;3.07;2.00;;;11.60;99.90;;;;;;5058762;28;21013;-83
2022/01/02 08:56:07;;;;;;;1.90;1.73;;;11.60;99.90;;;;;;5060922;28;20474;-83
2022/01/02 08:58:36;;;;;;;1.93;1.57;;;11.70;99.90;;;;;;5051975;28;20799;-82
2022/01/02 09:01:04;;;;;;;2.70;2.20;;;11.70;99.90;;;;;;5051826;28;20529;-83
2022/01/02 09:03:33;;;;;;;2.30;1.87;;;11.70;99.90;;;;;;5050314;28;20533;-83
2022/01/02 09:06:03;;;;;;;3.00;2.00;;;11.80;99.90;;;;;;5052534;28;20447;-82
2022/01/02 09:08:31;;;;;;;4.17;2.23;;;11.80;99.90;;;;;;5049955;28;20550;-84
2022/01/02 09:10:59;;;;;;;4.00;2.40;;;11.90;99.90;;;;;;5051942;28;20527;-83
2022/01/02 09:13:27;;;;;;;3.10;2.70;;;12.00;99.90;;;;;;5052041;28;20810;-83
2022/01/02 09:15:55;;;;;;;3.20;2.50;;;12.10;99.90;;;;;;5051245;28;20475;-83
2022/01/02 09:18:24;;;;;;;2.67;2.20;;;12.20;1.00;;;;;;5050551;28;20452;-83
2022/01/02 09:20:52;;;;;;;2.40;1.83;;;12.30;1.00;;;;;;5052200;28;20449;-83
2022/01/02 09:23:22;;;;;;;3.33;1.60;;;12.30;99.90;;;;;;5060693;28;21258;-84
2022/01/02 09:25:50;;;;;;;2.10;2.00;;;12.40;99.90;;;;;;5051880;28;20473;-83
2022/01/02 09:28:18;;;;;;;2.20;1.50;;;12.50;99.90;;;;;;5073516;28;20460;-83
2022/01/02 09:30:46;;;;;;;1.27;1.17;;;12.50;99.90;;;;;;5052276;28;20470;-83
2022/01/02 09:33:14;;;;;;;2.73;1.57;;;12.50;99.90;;;;;;5051229;28;20476;-84
2022/01/02 09:35:43;;;;;;;3.13;2.10;;;12.60;99.90;;;;;;5065943;28;20474;-83
2022/01/02 09:38:11;;;;;;;2.13;1.53;;;12.70;99.90;;;;;;5063347;28;20460;-83
2022/01/02 09:40:41;;;;;;;1.97;1.60;;;12.70;99.90;;;;;;5064603;28;20446;-83
2022/01/02 09:43:09;;;;;;;1.60;1.50;;;12.70;99.90;;;;;;5051766;28;20475;-83
2022/01/02 09:45:38;;;;;;;2.43;1.40;;;12.70;99.90;;;;;;5051048;28;20454;-83
2022/01/02 09:48:09;;;;;;;2.80;2.60;;;12.70;99.90;;;;;;5050622;28;20505;-83
2022/01/02 09:50:39;;;;;;;1.77;1.67;;;12.70;99.90;;;;;;5051159;28;20451;-84
2022/01/02 09:53:08;;;;;;;1.63;1.53;;;12.70;99.90;;;;;;5050911;28;20463;-83
2022/01/02 09:55:36;;;;;;;1.93;1.50;;;12.80;99.90;;;;;;5059820;28;20494;-82
2022/01/02 09:58:11;;;;;;;2.90;1.90;;;12.80;99.90;;;;;;5053631;28;20490;-83
2022/01/02 10:00:41;;;;;;;2.07;1.43;;;12.80;99.90;;;;;;5071306;28;20832;-83
2022/01/02 10:03:11;;;;;;;2.90;1.43;;;12.80;99.90;;;;;;5066752;28;20478;-83
2022/01/02 10:05:56;;;;;;;2.43;1.43;;;12.80;99.90;;;;;;5050432;28;20539;-83
2022/01/02 10:08:26;;;;;;;2.33;1.30;;;12.90;99.90;;;;;;5050466;28;20451;-82
2022/01/02 10:11:00;;;;;;;2.03;1.80;;;12.90;99.90;;;;;;5051177;28;21145;-83
2022/01/02 10:13:45;;;;;;;1.47;1.00;;;12.90;99.90;;;;;;5061145;28;20467;-83
2022/01/02 10:16:22;;;;;;;1.57;1.10;;;13.00;99.90;;;;;;5070556;28;20903;-83
2022/01/02 10:18:52;;;;;;;1.53;1.43;;;13.00;99.90;;;;;;5070409;28;20489;-83
2022/01/02 10:21:35;;;;;;;1.37;1.10;;;13.10;99.90;;;;;;5070384;28;20492;-83
2022/01/02 10:24:14;;;;;;;1.30;1.13;;;13.10;99.90;;;;;;5057131;28;20451;-83
2022/01/02 10:27:04;;;;;;;1.30;1.20;;;12.90;99.90;;;;;;5059207;28;20443;-82
2022/01/02 10:29:50;;;;;;;1.30;0.87;;;12.80;99.90;;;;;;5065526;28;20448;-83
2022/01/02 10:32:41;;;;;;;1.20;1.10;;;12.60;99.90;;;;;;5070401;28;20503;-83
2022/01/02 10:35:12;;;;;;;0.80;0.63;;;12.70;99.90;;;;;;5056303;28;20487;-84
2022/01/02 10:37:42;;;;;;;2.90;1.07;;;12.70;99.90;;;;;;5050203;28;20829;-82
2022/01/02 10:40:35;;;;;;;0.70;0.70;;;12.80;99.90;;;;;;5049138;28;20464;-83
2022/01/02 10:43:06;;;;;;;1.00;0.90;;;12.90;99.90;;;;;;5043862;28;20483;-84
2022/01/02 10:45:38;;;;;;;1.20;0.90;;;12.80;99.90;;;;;;5055548;28;20784;-83
2022/01/02 10:48:10;;;;;;;0.70;0.70;;;12.90;99.90;;;;;;5057511;28;21020;-83
2022/01/02 10:50:39;;;;;;;1.00;0.90;;;12.90;99.90;;;;;;5050332;28;20448;-83
2022/01/02 10:53:16;;;;;;;0.53;0.53;;;13.00;99.90;;;;;;5048684;28;20551;-83
2022/01/02 10:55:46;;;;;;;0.70;0.70;;;12.90;99.90;;;;;;5050549;28;20435;-82
2022/01/02 10:58:15;;;;;;;1.10;0.60;;;12.90;99.90;;;;;;5050125;28;20443;-83
2022/01/02 11:00:45;;;;;;;0.87;0.60;;;12.80;99.90;;;;;;5049952;28;20467;-82
2022/01/02 11:03:13;;;;;;;1.00;0.87;;;13.00;99.90;;;;;;5049342;28;21068;-83
2022/01/02 11:05:45;;;;;;;1.67;1.07;;;12.90;99.90;;;;;;5072893;28;20528;-84
2022/01/02 11:08:15;;;;;;;1.80;0.87;;;13.00;99.90;;;;;;5073899;28;20948;-83
2022/01/02 11:10:43;;;;;;;0.80;0.80;;;13.00;99.90;;;;;;5074207;28;20452;-83
2022/01/02 11:13:13;;;;;;;1.57;0.90;;;12.90;99.90;;;;;;5060192;28;20481;-83
2022/01/02 11:15:42;;;;;;;1.30;1.00;;;12.90;99.90;;;;;;5066433;28;20470;-83
2022/01/02 11:18:13;;;;;;;1.10;1.00;;;12.90;99.90;;;;;;5067909;28;20543;-84
2022/01/02 11:20:43;;;;;;;1.70;0.80;;;12.90;99.90;;;;;;5068765;28;20464;-82
2022/01/02 11:23:16;;;;;;;1.00;0.90;;;13.00;99.90;;;;;;5050883;28;20471;-83
2022/01/02 11:25:54;;;;;;;1.30;0.90;;;13.00;99.90;;;;;;5061919;28;20454;-82
2022/01/02 11:28:35;;;;;;;1.07;0.80;;;13.10;99.90;;;;;;5072649;28;20455;-84
2022/01/02 11:31:05;;;;;;;1.60;1.10;;;13.20;99.90;;;;;;5064374;28;20509;-82
2022/01/02 11:33:37;;;;;;;1.23;0.73;;;13.00;99.90;;;;;;5068269;28;20472;-83
2022/01/02 11:36:22;;;;;;;0.93;0.83;;;12.80;99.90;;;;;;5053706;28;20449;-83
2022/01/02 11:39:00;;;;;;;1.93;1.00;;;12.70;99.90;;;;;;5061933;28;20461;-84
2022/01/02 11:41:36;;;;;;;0.77;0.70;;;12.70;99.90;;;;;;5059964;28;20451;-83
2022/01/02 11:44:05;;;;;;;1.57;0.90;;;12.80;99.90;;;;;;5073402;28;20470;-84
2022/01/02 11:46:40;;;;;;;1.27;0.70;;;12.90;99.90;;;;;;5059615;28;20443;-83
2022/01/02 11:49:25;;;;;;;2.00;0.90;;;13.00;99.90;;;;;;5073430;28;20486;-84
2022/01/02 11:52:09;;;;;;;1.33;1.13;;;12.90;99.90;;;;;;5060710;28;20495;-82
2022/01/02 11:54:57;;;;;;;1.00;0.87;;;12.80;99.90;;;;;;5061321;28;20505;-82
2022/01/02 11:57:44;;;;;;;0.90;0.90;;;13.00;99.90;;;;;;5072624;28;20519;-84
2022/01/02 12:00:32;;;;;;;1.00;0.90;;;13.00;99.90;;;;;;5073870;28;20564;-83
2022/01/02 12:03:00;;;;;;;1.33;1.00;;;13.00;99.90;;;;;;5073532;28;20486;-83
2022/01/02 12:05:30;;;;;;;0.87;0.70;;;13.10;99.90;;;;;;5069161;28;20458;-84
2022/01/02 12:07:58;;;;;;;0.70;0.70;;;13.10;99.90;;;;;;5062556;28;20545;-84
2022/01/02 12:10:31;;;;;;;0.80;0.60;;;13.00;99.90;;;;;;5072801;28;20902;-82
2022/01/02 12:13:20;;;;;;;0.70;0.70;;;13.00;99.90;;;;;;5073192;28;20536;-83
2022/01/02 12:16:11;;;;;;;1.37;0.60;;;13.20;99.90;;;;;;5051494;28;20548;-83
2022/01/02 12:18:58;;;;;;;0.87;0.87;;;13.40;99.90;;;;;;5051131;28;20528;-83
2022/01/02 12:21:27;;;;;;;0.83;0.83;;;13.50;99.90;;;;;;5053397;28;20485;-84
2022/01/02 12:23:57;;;;;;;0.70;0.70;;;13.40;99.90;;;;;;5051827;28;20491;-84
2022/01/02 12:26:31;;;;;;;2.43;0.70;;;13.50;99.90;;;;;;5057559;28;20447;-83
2022/01/02 12:29:02;;;;;;;0.77;0.77;;;13.50;99.90;;;;;;5064904;28;20441;-84
2022/01/02 12:31:33;;;;;;;0.77;0.70;;;13.60;99.90;;;;;;5052427;28;20462;-82
2022/01/02 12:34:06;;;;;;;1.90;0.93;;;13.70;99.90;;;;;;5052632;28;20552;-83
2022/01/02 12:36:36;;;;;;;1.20;1.00;;;13.80;99.90;;;;;;5066382;28;20446;-84
2022/01/02 12:39:06;;;;;;;1.23;0.90;;;14.00;99.90;;;;;;5052304;28;20469;-83
2022/01/02 12:41:40;;;;;;;0.73;0.57;;;14.20;99.90;;;;;;5057581;28;20872;-84
2022/01/02 12:44:10;;;;;;;1.23;0.70;;;14.30;99.90;;;;;;5072650;28;20468;-84
2022/01/02 12:46:42;;;;;;;1.00;0.60;;;14.40;99.90;;;;;;5062011;28;20452;-84
2022/01/02 12:49:12;;;;;;;0.70;0.70;;;14.50;99.90;;;;;;5062536;28;20480;-83
2022/01/02 12:51:45;;;;;;;2.20;0.70;;;14.60;99.90;;;;;;5051489;28;20808;-84
2022/01/02 12:54:15;;;;;;;1.07;0.80;;;14.70;99.90;;;;;;5052263;28;20441;-84
2022/01/02 12:56:45;;;;;;;0.97;0.73;;;14.80;99.90;;;;;;5051936;28;20451;-84
2022/01/02 12:59:16;;;;;;;0.70;0.70;;;14.80;99.90;;;;;;5050425;28;20458;-83
2022/01/02 13:01:56;;;;;;;2.10;1.10;;;14.70;99.90;;;;;;5052484;28;20462;-84
2022/01/02 13:04:28;;;;;;;1.00;0.70;;;14.60;99.90;;;;;;5059964;28;20824;-83
2022/01/02 13:07:00;;;;;;;0.77;0.77;;;14.70;99.90;;;;;;5057758;28;20535;-84
2022/01/02 13:09:31;;;;;;;3.10;0.90;;;14.80;99.90;;;;;;5052102;28;20446;-84
2022/01/02 13:12:02;;;;;;;1.23;0.80;;;14.70;99.90;;;;;;5051771;28;21084;-84
2022/01/02 13:14:39;;;;;;;1.07;0.80;;;14.70;99.90;;;;;;5052131;28;20447;-83